sensor_id;sensor_type;location;lat;lon;timestamp;P1;durP1;ratioP1;P2;durP2;ratioP2
3771;SDS011;1901;48.172;12.824;2022-12-24T00:02:22;1.87;;;1.27;;
3771;SDS011;1901;48.172;12.824;2022-12-24T00:04:49;3.53;;;1.60;;
3771;SDS011;1901;48.172;12.824;2022-12-24T00:07:16;2.97;;;1.70;;
3771;SDS011;1901;48.172;12.824;2022-12-24T00:09:43;2.57;;;1.23;;
3771;SDS011;1901;48.172;12.824;2022-12-24T00:12:12;2.70;;;0.90;;
3771;SDS011;1901;48.172;12.824;2022-12-24T00:14:39;2.80;;;1.27;;
3771;SDS011;1901;48.172;12.824;2022-12-24T00:17:06;1.50;;;1.20;;
3771;SDS011;1901;48.172;12.824;2022-12-24T00:19:33;3.63;;;1.33;;
3771;SDS011;1901;48.172;12.824;2022-12-24T00:22:00;2.20;;;1.30;;
3771;SDS011;1901;48.172;12.824;2022-12-24T00:24:27;3.40;;;1.30;;
3771;SDS011;1901;48.172;12.824;2022-12-24T00:26:54;2.20;;;1.60;;
3771;SDS011;1901;48.172;12.824;2022-12-24T00:29:23;2.90;;;1.10;;
3771;SDS011;1901;48.172;12.824;2022-12-24T00:31:50;2.43;;;1.10;;
3771;SDS011;1901;48.172;12.824;2022-12-24T00:34:17;1.90;;;1.10;;
3771;SDS011;1901;48.172;12.824;2022-12-24T00:36:44;2.10;;;1.07;;
3771;SDS011;1901;48.172;12.824;2022-12-24T00:39:11;3.17;;;1.27;;
3771;SDS011;1901;48.172;12.824;2022-12-24T00:41:38;1.80;;;1.27;;
3771;SDS011;1901;48.172;12.824;2022-12-24T00:44:06;2.00;;;1.10;;
3771;SDS011;1901;48.172;12.824;2022-12-24T00:46:35;2.43;;;1.10;;
3771;SDS011;1901;48.172;12.824;2022-12-24T00:49:03;2.20;;;1.43;;
3771;SDS011;1901;48.172;12.824;2022-12-24T00:51:31;1.53;;;1.13;;
3771;SDS011;1901;48.172;12.824;2022-12-24T00:53:59;1.30;;;0.83;;
3771;SDS011;1901;48.172;12.824;2022-12-24T00:56:26;2.63;;;1.33;;
3771;SDS011;1901;48.172;12.824;2022-12-24T00:58:53;4.20;;;0.97;;
3771;SDS011;1901;48.172;12.824;2022-12-24T01:01:20;1.40;;;0.97;;
3771;SDS011;1901;48.172;12.824;2022-12-24T01:03:49;1.70;;;1.20;;
3771;SDS011;1901;48.172;12.824;2022-12-24T01:06:36;3.23;;;1.20;;
3771;SDS011;1901;48.172;12.824;2022-12-24T01:09:02;2.00;;;1.10;;
3771;SDS011;1901;48.172;12.824;2022-12-24T01:11:30;4.33;;;1.20;;
3771;SDS011;1901;48.172;12.824;2022-12-24T01:13:57;1.20;;;0.90;;
3771;SDS011;1901;48.172;12.824;2022-12-24T01:16:24;1.33;;;0.93;;
3771;SDS011;1901;48.172;12.824;2022-12-24T01:18:53;5.60;;;1.40;;
3771;SDS011;1901;48.172;12.824;2022-12-24T01:21:20;2.53;;;1.20;;
3771;SDS011;1901;48.172;12.824;2022-12-24T01:23:47;2.03;;;1.10;;
3771;SDS011;1901;48.172;12.824;2022-12-24T01:26:14;2.00;;;1.30;;
3771;SDS011;1901;48.172;12.824;2022-12-24T01:28:41;2.30;;;1.33;;
3771;SDS011;1901;48.172;12.824;2022-12-24T01:31:10;4.37;;;1.17;;
3771;SDS011;1901;48.172;12.824;2022-12-24T01:33:38;3.40;;;1.03;;
3771;SDS011;1901;48.172;12.824;2022-12-24T01:36:06;1.67;;;1.20;;
3771;SDS011;1901;48.172;12.824;2022-12-24T01:38:33;1.43;;;1.03;;
3771;SDS011;1901;48.172;12.824;2022-12-24T01:41:01;2.57;;;1.20;;
3771;SDS011;1901;48.172;12.824;2022-12-24T01:43:46;1.70;;;1.03;;
3771;SDS011;1901;48.172;12.824;2022-12-24T01:46:13;1.97;;;1.20;;
3771;SDS011;1901;48.172;12.824;2022-12-24T01:48:43;2.33;;;1.30;;
3771;SDS011;1901;48.172;12.824;2022-12-24T01:51:14;2.20;;;1.23;;
3771;SDS011;1901;48.172;12.824;2022-12-24T01:53:44;6.07;;;1.60;;
3771;SDS011;1901;48.172;12.824;2022-12-24T01:56:12;4.80;;;1.40;;
3771;SDS011;1901;48.172;12.824;2022-12-24T01:58:40;2.37;;;1.47;;
3771;SDS011;1901;48.172;12.824;2022-12-24T02:01:08;2.10;;;1.10;;
3771;SDS011;1901;48.172;12.824;2022-12-24T02:03:36;10.67;;;2.30;;
3771;SDS011;1901;48.172;12.824;2022-12-24T02:06:03;2.20;;;1.43;;
3771;SDS011;1901;48.172;12.824;2022-12-24T02:08:32;2.53;;;1.80;;
3771;SDS011;1901;48.172;12.824;2022-12-24T02:11:08;2.40;;;1.30;;
3771;SDS011;1901;48.172;12.824;2022-12-24T02:13:35;3.03;;;1.70;;
3771;SDS011;1901;48.172;12.824;2022-12-24T02:16:04;1.90;;;1.40;;
3771;SDS011;1901;48.172;12.824;2022-12-24T02:18:36;2.97;;;1.60;;
3771;SDS011;1901;48.172;12.824;2022-12-24T02:24:00;3.30;;;1.70;;
3771;SDS011;1901;48.172;12.824;2022-12-24T02:26:32;1.80;;;1.43;;
3771;SDS011;1901;48.172;12.824;2022-12-24T02:29:07;2.83;;;1.43;;
3771;SDS011;1901;48.172;12.824;2022-12-24T02:31:40;2.60;;;1.73;;
3771;SDS011;1901;48.172;12.824;2022-12-24T02:34:10;3.93;;;1.60;;
3771;SDS011;1901;48.172;12.824;2022-12-24T02:36:39;1.70;;;1.30;;
3771;SDS011;1901;48.172;12.824;2022-12-24T02:39:09;1.70;;;1.20;;
3771;SDS011;1901;48.172;12.824;2022-12-24T02:41:38;2.13;;;1.30;;
3771;SDS011;1901;48.172;12.824;2022-12-24T02:44:20;4.13;;;1.40;;
3771;SDS011;1901;48.172;12.824;2022-12-24T02:46:49;2.33;;;1.50;;
3771;SDS011;1901;48.172;12.824;2022-12-24T02:49:17;3.97;;;1.23;;
3771;SDS011;1901;48.172;12.824;2022-12-24T02:51:44;2.20;;;1.30;;
3771;SDS011;1901;48.172;12.824;2022-12-24T02:54:11;1.93;;;1.40;;
3771;SDS011;1901;48.172;12.824;2022-12-24T02:56:43;2.43;;;1.83;;
3771;SDS011;1901;48.172;12.824;2022-12-24T02:59:19;3.93;;;1.93;;
3771;SDS011;1901;48.172;12.824;2022-12-24T03:01:55;3.93;;;1.87;;
3771;SDS011;1901;48.172;12.824;2022-12-24T03:04:26;1.97;;;1.47;;
3771;SDS011;1901;48.172;12.824;2022-12-24T03:07:05;1.80;;;1.20;;
3771;SDS011;1901;48.172;12.824;2022-12-24T03:09:37;2.27;;;1.20;;
3771;SDS011;1901;48.172;12.824;2022-12-24T03:12:06;2.77;;;1.37;;
3771;SDS011;1901;48.172;12.824;2022-12-24T03:14:34;2.40;;;2.00;;
3771;SDS011;1901;48.172;12.824;2022-12-24T03:17:03;3.83;;;2.20;;
3771;SDS011;1901;48.172;12.824;2022-12-24T03:19:30;1.70;;;1.60;;
3771;SDS011;1901;48.172;12.824;2022-12-24T03:21:58;1.50;;;1.33;;
3771;SDS011;1901;48.172;12.824;2022-12-24T03:24:26;2.13;;;1.33;;
3771;SDS011;1901;48.172;12.824;2022-12-24T03:26:53;1.83;;;1.43;;
3771;SDS011;1901;48.172;12.824;2022-12-24T03:29:20;1.73;;;1.50;;
3771;SDS011;1901;48.172;12.824;2022-12-24T03:31:48;1.70;;;1.20;;
3771;SDS011;1901;48.172;12.824;2022-12-24T03:34:17;4.80;;;1.50;;
3771;SDS011;1901;48.172;12.824;2022-12-24T03:36:44;2.80;;;1.10;;
3771;SDS011;1901;48.172;12.824;2022-12-24T03:39:12;1.50;;;1.00;;
3771;SDS011;1901;48.172;12.824;2022-12-24T03:41:40;1.53;;;1.07;;
3771;SDS011;1901;48.172;12.824;2022-12-24T03:44:07;1.90;;;1.10;;
3771;SDS011;1901;48.172;12.824;2022-12-24T03:46:34;2.87;;;1.40;;
3771;SDS011;1901;48.172;12.824;2022-12-24T03:49:01;1.87;;;1.03;;
3771;SDS011;1901;48.172;12.824;2022-12-24T03:51:29;4.00;;;2.57;;
3771;SDS011;1901;48.172;12.824;2022-12-24T03:53:57;2.40;;;2.00;;
3771;SDS011;1901;48.172;12.824;2022-12-24T03:56:25;5.83;;;1.33;;
3771;SDS011;1901;48.172;12.824;2022-12-24T03:58:52;1.90;;;1.23;;
3771;SDS011;1901;48.172;12.824;2022-12-24T04:01:19;2.93;;;1.60;;
3771;SDS011;1901;48.172;12.824;2022-12-24T04:03:46;1.90;;;1.13;;
3771;SDS011;1901;48.172;12.824;2022-12-24T04:06:14;1.87;;;1.20;;
3771;SDS011;1901;48.172;12.824;2022-12-24T04:08:43;3.90;;;1.63;;
3771;SDS011;1901;48.172;12.824;2022-12-24T04:11:11;2.43;;;1.00;;
3771;SDS011;1901;48.172;12.824;2022-12-24T04:13:38;1.43;;;1.03;;
3771;SDS011;1901;48.172;12.824;2022-12-24T04:16:06;2.37;;;1.50;;
3771;SDS011;1901;48.172;12.824;2022-12-24T04:18:33;3.40;;;1.77;;
3771;SDS011;1901;48.172;12.824;2022-12-24T04:21:00;3.80;;;1.70;;
3771;SDS011;1901;48.172;12.824;2022-12-24T04:23:29;6.90;;;2.00;;
3771;SDS011;1901;48.172;12.824;2022-12-24T04:25:58;3.00;;;1.57;;
3771;SDS011;1901;48.172;12.824;2022-12-24T04:28:27;4.00;;;1.50;;
3771;SDS011;1901;48.172;12.824;2022-12-24T04:30:56;2.53;;;1.80;;
3771;SDS011;1901;48.172;12.824;2022-12-24T04:33:23;5.27;;;2.03;;
3771;SDS011;1901;48.172;12.824;2022-12-24T04:35:50;3.63;;;2.00;;
3771;SDS011;1901;48.172;12.824;2022-12-24T04:38:17;5.63;;;2.47;;
3771;SDS011;1901;48.172;12.824;2022-12-24T04:40:44;3.80;;;2.20;;
3771;SDS011;1901;48.172;12.824;2022-12-24T04:43:13;5.80;;;2.30;;
3771;SDS011;1901;48.172;12.824;2022-12-24T04:45:40;5.57;;;2.60;;
3771;SDS011;1901;48.172;12.824;2022-12-24T04:48:07;5.80;;;2.20;;
3771;SDS011;1901;48.172;12.824;2022-12-24T04:50:34;5.43;;;2.17;;
3771;SDS011;1901;48.172;12.824;2022-12-24T04:53:01;5.50;;;2.43;;
3771;SDS011;1901;48.172;12.824;2022-12-24T04:55:28;5.03;;;1.70;;
3771;SDS011;1901;48.172;12.824;2022-12-24T04:57:55;2.43;;;1.50;;
3771;SDS011;1901;48.172;12.824;2022-12-24T05:00:24;2.00;;;1.60;;
3771;SDS011;1901;48.172;12.824;2022-12-24T05:02:51;3.07;;;1.53;;
3771;SDS011;1901;48.172;12.824;2022-12-24T05:05:18;2.40;;;1.40;;
3771;SDS011;1901;48.172;12.824;2022-12-24T05:07:45;2.17;;;1.43;;
3771;SDS011;1901;48.172;12.824;2022-12-24T05:10:12;2.23;;;1.40;;
3771;SDS011;1901;48.172;12.824;2022-12-24T05:12:39;4.17;;;1.70;;
3771;SDS011;1901;48.172;12.824;2022-12-24T05:15:07;2.30;;;1.40;;
3771;SDS011;1901;48.172;12.824;2022-12-24T05:17:35;4.20;;;1.30;;
3771;SDS011;1901;48.172;12.824;2022-12-24T05:20:02;3.60;;;1.27;;
3771;SDS011;1901;48.172;12.824;2022-12-24T05:22:30;6.13;;;1.50;;
3771;SDS011;1901;48.172;12.824;2022-12-24T05:25:14;3.17;;;1.30;;
3771;SDS011;1901;48.172;12.824;2022-12-24T05:27:59;1.43;;;1.10;;
3771;SDS011;1901;48.172;12.824;2022-12-24T05:30:26;1.77;;;1.43;;
3771;SDS011;1901;48.172;12.824;2022-12-24T05:32:55;3.20;;;1.20;;
3771;SDS011;1901;48.172;12.824;2022-12-24T05:35:22;3.77;;;1.30;;
3771;SDS011;1901;48.172;12.824;2022-12-24T05:37:49;3.07;;;1.90;;
3771;SDS011;1901;48.172;12.824;2022-12-24T05:40:16;3.23;;;1.37;;
3771;SDS011;1901;48.172;12.824;2022-12-24T05:42:43;1.47;;;0.97;;
3771;SDS011;1901;48.172;12.824;2022-12-24T05:45:10;2.17;;;1.30;;
3771;SDS011;1901;48.172;12.824;2022-12-24T05:47:37;1.60;;;1.33;;
3771;SDS011;1901;48.172;12.824;2022-12-24T05:50:07;2.17;;;1.40;;
3771;SDS011;1901;48.172;12.824;2022-12-24T05:52:34;2.17;;;1.23;;
3771;SDS011;1901;48.172;12.824;2022-12-24T05:55:01;3.37;;;1.60;;
3771;SDS011;1901;48.172;12.824;2022-12-24T05:57:28;2.70;;;1.43;;
3771;SDS011;1901;48.172;12.824;2022-12-24T05:59:55;2.73;;;1.30;;
3771;SDS011;1901;48.172;12.824;2022-12-24T06:02:22;3.80;;;1.37;;
3771;SDS011;1901;48.172;12.824;2022-12-24T06:04:49;2.73;;;1.30;;
3771;SDS011;1901;48.172;12.824;2022-12-24T06:07:18;2.17;;;1.20;;
3771;SDS011;1901;48.172;12.824;2022-12-24T06:09:45;5.77;;;3.60;;
3771;SDS011;1901;48.172;12.824;2022-12-24T06:12:12;5.13;;;2.20;;
3771;SDS011;1901;48.172;12.824;2022-12-24T06:14:39;3.03;;;2.50;;
3771;SDS011;1901;48.172;12.824;2022-12-24T06:17:06;5.10;;;2.20;;
3771;SDS011;1901;48.172;12.824;2022-12-24T06:19:33;4.00;;;3.07;;
3771;SDS011;1901;48.172;12.824;2022-12-24T06:22:00;4.03;;;1.43;;
3771;SDS011;1901;48.172;12.824;2022-12-24T06:24:28;3.87;;;1.50;;
3771;SDS011;1901;48.172;12.824;2022-12-24T06:26:55;4.73;;;1.53;;
3771;SDS011;1901;48.172;12.824;2022-12-24T06:29:23;1.60;;;1.00;;
3771;SDS011;1901;48.172;12.824;2022-12-24T06:31:50;1.80;;;1.07;;
3771;SDS011;1901;48.172;12.824;2022-12-24T06:34:17;2.47;;;1.63;;
3771;SDS011;1901;48.172;12.824;2022-12-24T06:36:44;3.10;;;1.30;;
3771;SDS011;1901;48.172;12.824;2022-12-24T06:39:11;6.90;;;6.20;;
3771;SDS011;1901;48.172;12.824;2022-12-24T06:41:40;7.43;;;1.73;;
3771;SDS011;1901;48.172;12.824;2022-12-24T06:44:07;5.83;;;2.43;;
3771;SDS011;1901;48.172;12.824;2022-12-24T06:46:34;3.80;;;2.20;;
3771;SDS011;1901;48.172;12.824;2022-12-24T06:49:02;4.73;;;2.00;;
3771;SDS011;1901;48.172;12.824;2022-12-24T06:51:29;4.30;;;3.90;;
3771;SDS011;1901;48.172;12.824;2022-12-24T06:53:56;26.20;;;11.60;;
3771;SDS011;1901;48.172;12.824;2022-12-24T06:56:23;15.23;;;9.27;;
3771;SDS011;1901;48.172;12.824;2022-12-24T06:58:51;15.00;;;7.60;;
3771;SDS011;1901;48.172;12.824;2022-12-24T07:01:19;8.53;;;6.83;;
3771;SDS011;1901;48.172;12.824;2022-12-24T07:03:48;2.50;;;1.07;;
3771;SDS011;1901;48.172;12.824;2022-12-24T07:06:18;4.33;;;1.23;;
3771;SDS011;1901;48.172;12.824;2022-12-24T07:08:45;4.70;;;1.40;;
3771;SDS011;1901;48.172;12.824;2022-12-24T07:11:12;2.03;;;1.20;;
3771;SDS011;1901;48.172;12.824;2022-12-24T07:13:40;1.60;;;1.10;;
3771;SDS011;1901;48.172;12.824;2022-12-24T07:16:08;4.33;;;1.57;;
3771;SDS011;1901;48.172;12.824;2022-12-24T07:18:35;2.70;;;1.67;;
3771;SDS011;1901;48.172;12.824;2022-12-24T07:21:03;4.03;;;1.47;;
3771;SDS011;1901;48.172;12.824;2022-12-24T07:23:31;4.90;;;1.80;;
3771;SDS011;1901;48.172;12.824;2022-12-24T07:25:58;2.73;;;1.40;;
3771;SDS011;1901;48.172;12.824;2022-12-24T07:28:26;4.57;;;1.43;;
3771;SDS011;1901;48.172;12.824;2022-12-24T07:30:53;3.30;;;1.20;;
3771;SDS011;1901;48.172;12.824;2022-12-24T07:33:22;3.73;;;1.77;;
3771;SDS011;1901;48.172;12.824;2022-12-24T07:35:56;3.37;;;1.97;;
3771;SDS011;1901;48.172;12.824;2022-12-24T07:38:23;4.97;;;2.80;;
3771;SDS011;1901;48.172;12.824;2022-12-24T07:40:50;3.30;;;2.50;;
3771;SDS011;1901;48.172;12.824;2022-12-24T07:43:17;8.83;;;3.77;;
3771;SDS011;1901;48.172;12.824;2022-12-24T07:45:44;4.20;;;2.20;;
3771;SDS011;1901;48.172;12.824;2022-12-24T07:48:11;4.57;;;2.10;;
3771;SDS011;1901;48.172;12.824;2022-12-24T07:50:40;4.10;;;1.90;;
3771;SDS011;1901;48.172;12.824;2022-12-24T07:53:07;13.60;;;5.70;;
3771;SDS011;1901;48.172;12.824;2022-12-24T07:55:34;5.20;;;2.87;;
3771;SDS011;1901;48.172;12.824;2022-12-24T07:58:01;4.23;;;3.30;;
3771;SDS011;1901;48.172;12.824;2022-12-24T08:00:28;5.63;;;2.50;;
3771;SDS011;1901;48.172;12.824;2022-12-24T08:02:55;16.00;;;8.60;;
3771;SDS011;1901;48.172;12.824;2022-12-24T08:05:24;9.70;;;5.13;;
3771;SDS011;1901;48.172;12.824;2022-12-24T08:07:53;87.07;;;32.30;;
3771;SDS011;1901;48.172;12.824;2022-12-24T08:10:20;57.60;;;24.33;;
3771;SDS011;1901;48.172;12.824;2022-12-24T08:12:47;97.90;;;35.17;;
3771;SDS011;1901;48.172;12.824;2022-12-24T08:15:14;141.93;;;55.00;;
3771;SDS011;1901;48.172;12.824;2022-12-24T08:17:42;145.10;;;52.53;;
3771;SDS011;1901;48.172;12.824;2022-12-24T08:20:09;151.07;;;55.63;;
3771;SDS011;1901;48.172;12.824;2022-12-24T08:22:36;110.43;;;44.90;;
3771;SDS011;1901;48.172;12.824;2022-12-24T08:25:05;90.63;;;38.33;;
3771;SDS011;1901;48.172;12.824;2022-12-24T08:27:32;47.67;;;22.27;;
3771;SDS011;1901;48.172;12.824;2022-12-24T08:29:59;18.40;;;9.37;;
3771;SDS011;1901;48.172;12.824;2022-12-24T08:32:27;10.20;;;4.30;;
3771;SDS011;1901;48.172;12.824;2022-12-24T08:34:54;12.87;;;5.03;;
3771;SDS011;1901;48.172;12.824;2022-12-24T08:37:21;10.97;;;5.50;;
3771;SDS011;1901;48.172;12.824;2022-12-24T08:39:48;7.53;;;4.90;;
3771;SDS011;1901;48.172;12.824;2022-12-24T08:42:16;7.23;;;4.00;;
3771;SDS011;1901;48.172;12.824;2022-12-24T08:44:43;6.60;;;3.23;;
3771;SDS011;1901;48.172;12.824;2022-12-24T08:47:10;10.83;;;3.30;;
3771;SDS011;1901;48.172;12.824;2022-12-24T08:49:37;5.97;;;3.17;;
3771;SDS011;1901;48.172;12.824;2022-12-24T08:52:04;10.30;;;5.00;;
3771;SDS011;1901;48.172;12.824;2022-12-24T08:54:32;8.50;;;3.30;;
3771;SDS011;1901;48.172;12.824;2022-12-24T08:56:59;3.47;;;2.53;;
3771;SDS011;1901;48.172;12.824;2022-12-24T08:59:27;3.03;;;1.53;;
3771;SDS011;1901;48.172;12.824;2022-12-24T09:01:54;4.67;;;1.70;;
3771;SDS011;1901;48.172;12.824;2022-12-24T09:04:21;2.83;;;1.50;;
3771;SDS011;1901;48.172;12.824;2022-12-24T09:06:48;3.53;;;1.77;;
3771;SDS011;1901;48.172;12.824;2022-12-24T09:09:15;2.50;;;1.70;;
3771;SDS011;1901;48.172;12.824;2022-12-24T09:11:42;3.40;;;1.30;;
3771;SDS011;1901;48.172;12.824;2022-12-24T09:14:10;5.20;;;1.70;;
3771;SDS011;1901;48.172;12.824;2022-12-24T09:16:38;2.30;;;1.50;;
3771;SDS011;1901;48.172;12.824;2022-12-24T09:19:05;4.03;;;2.37;;
3771;SDS011;1901;48.172;12.824;2022-12-24T09:21:32;4.30;;;2.60;;
3771;SDS011;1901;48.172;12.824;2022-12-24T09:23:59;2.70;;;2.17;;
3771;SDS011;1901;48.172;12.824;2022-12-24T09:26:29;2.37;;;1.70;;
3771;SDS011;1901;48.172;12.824;2022-12-24T09:28:56;3.00;;;1.30;;
3771;SDS011;1901;48.172;12.824;2022-12-24T09:31:24;2.80;;;1.40;;
3771;SDS011;1901;48.172;12.824;2022-12-24T09:33:53;2.27;;;1.10;;
3771;SDS011;1901;48.172;12.824;2022-12-24T09:36:20;4.97;;;1.67;;
3771;SDS011;1901;48.172;12.824;2022-12-24T09:38:48;2.23;;;1.50;;
3771;SDS011;1901;48.172;12.824;2022-12-24T09:41:19;1.80;;;1.40;;
3771;SDS011;1901;48.172;12.824;2022-12-24T09:43:51;1.87;;;1.30;;
3771;SDS011;1901;48.172;12.824;2022-12-24T09:46:20;2.60;;;1.50;;
3771;SDS011;1901;48.172;12.824;2022-12-24T09:48:48;4.70;;;2.70;;
3771;SDS011;1901;48.172;12.824;2022-12-24T09:51:20;6.63;;;2.10;;
3771;SDS011;1901;48.172;12.824;2022-12-24T09:53:51;1.60;;;1.20;;
3771;SDS011;1901;48.172;12.824;2022-12-24T09:56:21;3.30;;;2.17;;
3771;SDS011;1901;48.172;12.824;2022-12-24T09:58:49;9.73;;;1.43;;
3771;SDS011;1901;48.172;12.824;2022-12-24T10:01:19;7.00;;;1.73;;
3771;SDS011;1901;48.172;12.824;2022-12-24T10:03:46;3.90;;;2.63;;
3771;SDS011;1901;48.172;12.824;2022-12-24T10:06:13;2.30;;;1.37;;
3771;SDS011;1901;48.172;12.824;2022-12-24T10:08:50;2.37;;;1.40;;
3771;SDS011;1901;48.172;12.824;2022-12-24T10:11:22;2.90;;;1.70;;
3771;SDS011;1901;48.172;12.824;2022-12-24T10:13:53;2.70;;;1.80;;
3771;SDS011;1901;48.172;12.824;2022-12-24T10:16:26;2.10;;;1.37;;
3771;SDS011;1901;48.172;12.824;2022-12-24T10:18:55;4.30;;;1.30;;
3771;SDS011;1901;48.172;12.824;2022-12-24T10:21:26;1.87;;;1.10;;
3771;SDS011;1901;48.172;12.824;2022-12-24T10:23:59;2.47;;;1.30;;
3771;SDS011;1901;48.172;12.824;2022-12-24T10:26:31;3.87;;;2.10;;
3771;SDS011;1901;48.172;12.824;2022-12-24T10:29:05;2.57;;;1.67;;
3771;SDS011;1901;48.172;12.824;2022-12-24T10:31:35;2.17;;;1.63;;
3771;SDS011;1901;48.172;12.824;2022-12-24T10:34:06;2.03;;;1.13;;
3771;SDS011;1901;48.172;12.824;2022-12-24T10:36:39;2.10;;;1.30;;
3771;SDS011;1901;48.172;12.824;2022-12-24T10:39:08;3.93;;;1.97;;
3771;SDS011;1901;48.172;12.824;2022-12-24T10:41:39;4.60;;;2.40;;
3771;SDS011;1901;48.172;12.824;2022-12-24T10:44:07;2.27;;;1.47;;
3771;SDS011;1901;48.172;12.824;2022-12-24T10:46:37;1.57;;;1.20;;
3771;SDS011;1901;48.172;12.824;2022-12-24T10:49:05;2.00;;;1.30;;
3771;SDS011;1901;48.172;12.824;2022-12-24T10:51:35;2.03;;;1.30;;
3771;SDS011;1901;48.172;12.824;2022-12-24T10:54:05;2.10;;;1.20;;
3771;SDS011;1901;48.172;12.824;2022-12-24T10:56:39;2.10;;;1.50;;
3771;SDS011;1901;48.172;12.824;2022-12-24T10:59:08;3.40;;;1.33;;
3771;SDS011;1901;48.172;12.824;2022-12-24T11:01:47;4.27;;;1.40;;
3771;SDS011;1901;48.172;12.824;2022-12-24T11:04:16;1.90;;;1.30;;
3771;SDS011;1901;48.172;12.824;2022-12-24T11:06:50;2.67;;;1.63;;
3771;SDS011;1901;48.172;12.824;2022-12-24T11:09:19;4.17;;;2.03;;
3771;SDS011;1901;48.172;12.824;2022-12-24T11:11:48;3.07;;;1.77;;
3771;SDS011;1901;48.172;12.824;2022-12-24T11:14:16;1.90;;;1.30;;
3771;SDS011;1901;48.172;12.824;2022-12-24T11:16:47;1.60;;;1.20;;
3771;SDS011;1901;48.172;12.824;2022-12-24T11:19:15;4.20;;;1.70;;
3771;SDS011;1901;48.172;12.824;2022-12-24T11:21:44;2.90;;;1.60;;
3771;SDS011;1901;48.172;12.824;2022-12-24T11:24:18;2.70;;;2.23;;
3771;SDS011;1901;48.172;12.824;2022-12-24T11:26:48;2.30;;;1.30;;
3771;SDS011;1901;48.172;12.824;2022-12-24T11:29:18;1.70;;;1.30;;
3771;SDS011;1901;48.172;12.824;2022-12-24T11:31:46;2.80;;;1.50;;
3771;SDS011;1901;48.172;12.824;2022-12-24T11:34:18;3.80;;;2.00;;
3771;SDS011;1901;48.172;12.824;2022-12-24T11:36:48;6.17;;;2.80;;
3771;SDS011;1901;48.172;12.824;2022-12-24T11:39:19;6.50;;;1.67;;
3771;SDS011;1901;48.172;12.824;2022-12-24T11:41:47;2.07;;;1.67;;
3771;SDS011;1901;48.172;12.824;2022-12-24T11:44:16;3.77;;;1.60;;
3771;SDS011;1901;48.172;12.824;2022-12-24T11:46:48;1.90;;;1.30;;
3771;SDS011;1901;48.172;12.824;2022-12-24T11:49:22;4.67;;;2.40;;
3771;SDS011;1901;48.172;12.824;2022-12-24T11:52:03;4.67;;;2.50;;
3771;SDS011;1901;48.172;12.824;2022-12-24T11:54:38;3.73;;;2.00;;
3771;SDS011;1901;48.172;12.824;2022-12-24T11:57:06;2.60;;;1.33;;
3771;SDS011;1901;48.172;12.824;2022-12-24T11:59:39;4.50;;;1.80;;
3771;SDS011;1901;48.172;12.824;2022-12-24T12:02:11;3.93;;;1.63;;
3771;SDS011;1901;48.172;12.824;2022-12-24T12:04:41;3.73;;;1.30;;
3771;SDS011;1901;48.172;12.824;2022-12-24T12:07:09;3.60;;;1.73;;
3771;SDS011;1901;48.172;12.824;2022-12-24T12:09:37;2.50;;;1.63;;
3771;SDS011;1901;48.172;12.824;2022-12-24T12:12:07;1.97;;;1.20;;
3771;SDS011;1901;48.172;12.824;2022-12-24T12:14:36;3.50;;;1.80;;
3771;SDS011;1901;48.172;12.824;2022-12-24T12:17:10;3.57;;;2.40;;
3771;SDS011;1901;48.172;12.824;2022-12-24T12:19:40;3.70;;;1.80;;
3771;SDS011;1901;48.172;12.824;2022-12-24T12:22:10;4.90;;;1.47;;
3771;SDS011;1901;48.172;12.824;2022-12-24T12:24:43;4.53;;;1.70;;
3771;SDS011;1901;48.172;12.824;2022-12-24T12:27:15;3.20;;;1.40;;
3771;SDS011;1901;48.172;12.824;2022-12-24T12:29:46;2.90;;;1.40;;
3771;SDS011;1901;48.172;12.824;2022-12-24T12:32:20;2.33;;;1.03;;
3771;SDS011;1901;48.172;12.824;2022-12-24T12:34:51;2.90;;;1.17;;
3771;SDS011;1901;48.172;12.824;2022-12-24T12:37:23;3.43;;;1.27;;
3771;SDS011;1901;48.172;12.824;2022-12-24T12:39:52;1.93;;;1.23;;
3771;SDS011;1901;48.172;12.824;2022-12-24T12:42:21;1.83;;;1.13;;
3771;SDS011;1901;48.172;12.824;2022-12-24T12:44:58;1.93;;;1.30;;
3771;SDS011;1901;48.172;12.824;2022-12-24T12:47:35;2.57;;;1.60;;
3771;SDS011;1901;48.172;12.824;2022-12-24T12:50:07;4.53;;;1.53;;
3771;SDS011;1901;48.172;12.824;2022-12-24T12:52:40;4.43;;;1.70;;
3771;SDS011;1901;48.172;12.824;2022-12-24T12:55:15;1.90;;;1.20;;
3771;SDS011;1901;48.172;12.824;2022-12-24T12:57:44;2.30;;;1.40;;
3771;SDS011;1901;48.172;12.824;2022-12-24T13:00:14;2.77;;;1.83;;
3771;SDS011;1901;48.172;12.824;2022-12-24T13:02:49;3.03;;;1.47;;
3771;SDS011;1901;48.172;12.824;2022-12-24T13:05:33;3.17;;;1.40;;
3771;SDS011;1901;48.172;12.824;2022-12-24T13:08:10;3.87;;;1.70;;
3771;SDS011;1901;48.172;12.824;2022-12-24T13:10:51;4.87;;;1.60;;
3771;SDS011;1901;48.172;12.824;2022-12-24T13:13:27;4.47;;;2.00;;
3771;SDS011;1901;48.172;12.824;2022-12-24T13:18:48;3.73;;;1.33;;
3771;SDS011;1901;48.172;12.824;2022-12-24T13:21:19;4.10;;;2.27;;
3771;SDS011;1901;48.172;12.824;2022-12-24T13:23:46;3.30;;;2.10;;
3771;SDS011;1901;48.172;12.824;2022-12-24T13:26:14;4.83;;;1.47;;
3771;SDS011;1901;48.172;12.824;2022-12-24T13:28:41;7.00;;;1.20;;
3771;SDS011;1901;48.172;12.824;2022-12-24T13:31:23;4.47;;;1.57;;
3771;SDS011;1901;48.172;12.824;2022-12-24T13:33:53;2.10;;;1.40;;
3771;SDS011;1901;48.172;12.824;2022-12-24T13:36:21;4.57;;;1.83;;
3771;SDS011;1901;48.172;12.824;2022-12-24T13:38:48;3.50;;;2.13;;
3771;SDS011;1901;48.172;12.824;2022-12-24T13:44:03;5.70;;;1.30;;
3771;SDS011;1901;48.172;12.824;2022-12-24T13:49:27;3.63;;;1.57;;
3771;SDS011;1901;48.172;12.824;2022-12-24T13:52:05;10.87;;;3.60;;
3771;SDS011;1901;48.172;12.824;2022-12-24T13:54:33;2.40;;;1.77;;
3771;SDS011;1901;48.172;12.824;2022-12-24T13:57:01;3.03;;;1.50;;
3771;SDS011;1901;48.172;12.824;2022-12-24T13:59:52;4.63;;;2.20;;
3771;SDS011;1901;48.172;12.824;2022-12-24T14:02:22;4.53;;;1.53;;
3771;SDS011;1901;48.172;12.824;2022-12-24T14:04:51;4.37;;;1.80;;
3771;SDS011;1901;48.172;12.824;2022-12-24T14:07:18;3.30;;;1.70;;
3771;SDS011;1901;48.172;12.824;2022-12-24T14:09:46;7.00;;;2.63;;
3771;SDS011;1901;48.172;12.824;2022-12-24T14:12:31;3.37;;;2.00;;
3771;SDS011;1901;48.172;12.824;2022-12-24T14:15:13;3.63;;;1.73;;
3771;SDS011;1901;48.172;12.824;2022-12-24T14:18:01;2.70;;;1.60;;
3771;SDS011;1901;48.172;12.824;2022-12-24T14:20:29;2.97;;;1.80;;
3771;SDS011;1901;48.172;12.824;2022-12-24T14:22:57;3.37;;;2.00;;
3771;SDS011;1901;48.172;12.824;2022-12-24T14:25:25;2.60;;;1.50;;
3771;SDS011;1901;48.172;12.824;2022-12-24T14:28:03;8.80;;;2.47;;
3771;SDS011;1901;48.172;12.824;2022-12-24T14:30:31;3.37;;;2.00;;
3771;SDS011;1901;48.172;12.824;2022-12-24T14:32:58;3.37;;;2.47;;
3771;SDS011;1901;48.172;12.824;2022-12-24T14:35:26;3.10;;;2.10;;
3771;SDS011;1901;48.172;12.824;2022-12-24T14:37:57;7.40;;;3.80;;
3771;SDS011;1901;48.172;12.824;2022-12-24T14:40:26;5.77;;;2.67;;
3771;SDS011;1901;48.172;12.824;2022-12-24T14:42:56;9.80;;;5.67;;
3771;SDS011;1901;48.172;12.824;2022-12-24T14:45:27;16.10;;;5.50;;
3771;SDS011;1901;48.172;12.824;2022-12-24T14:47:58;7.50;;;4.07;;
3771;SDS011;1901;48.172;12.824;2022-12-24T14:50:43;11.63;;;6.60;;
3771;SDS011;1901;48.172;12.824;2022-12-24T14:53:19;13.10;;;7.60;;
3771;SDS011;1901;48.172;12.824;2022-12-24T14:55:48;8.40;;;4.70;;
3771;SDS011;1901;48.172;12.824;2022-12-24T14:58:20;8.50;;;4.10;;
3771;SDS011;1901;48.172;12.824;2022-12-24T15:00:48;5.00;;;3.03;;
3771;SDS011;1901;48.172;12.824;2022-12-24T15:03:16;9.93;;;4.33;;
3771;SDS011;1901;48.172;12.824;2022-12-24T15:05:43;7.73;;;3.50;;
3771;SDS011;1901;48.172;12.824;2022-12-24T15:08:13;7.03;;;4.40;;
3771;SDS011;1901;48.172;12.824;2022-12-24T15:10:43;8.50;;;5.03;;
3771;SDS011;1901;48.172;12.824;2022-12-24T15:13:13;11.30;;;3.33;;
3771;SDS011;1901;48.172;12.824;2022-12-24T15:15:42;6.70;;;2.60;;
3771;SDS011;1901;48.172;12.824;2022-12-24T15:18:13;3.87;;;2.20;;
3771;SDS011;1901;48.172;12.824;2022-12-24T15:20:41;10.60;;;5.80;;
3771;SDS011;1901;48.172;12.824;2022-12-24T15:23:15;5.50;;;4.07;;
3771;SDS011;1901;48.172;12.824;2022-12-24T15:25:45;9.00;;;3.87;;